• Join FlightAware (Why Join?)
  • Login
  • US Flag 
12:58PM EDT


 

Airport Tracker/Info


-or-


 

Live Flight TrackerFlight Track Log ✈ N41AU ✈ 26-Apr-2013 ✈ KDPA - KMRY

Flight Track Log - Related Links

Times and Time Zones

All times are in EDT time to prevent confusion due to time zone crossing. See the N41AU flight status page for this flight to view local times or setup timezone preferences in your user account.

Time Position Orientation Groundspeed Altitude Reporting Facility
EDT Latitude Longitude Course Direction KTS MPH feet Rate Location/Type
01:57PM 41.8739 -88.2783 265° West 141 162 2,000  Level Chicago Center
01:58PM 41.8672 -88.3867 265° West 240 276 6,400 3,660 Climbing Chicago Center
01:59PM 41.8675 -88.4778 270° West 244 281 9,600 2,340 Climbing Chicago Center
02:00PM 41.8483 -88.5800 256° West 292 336 11,300 1,260 Climbing Chicago Center
02:01PM 41.8103 -88.6956 246° West 336 387 12,300 1,320 Climbing Chicago Center
02:02PM 41.7594 -88.8492 246° West 377 434 14,100 1,500 Climbing Chicago Center
02:03PM 41.7181 -88.9814 247° West 386 444 15,500 1,140 Climbing Chicago Center
02:04PM 41.6833 -89.1219 252° West 401 461 16,500 960 Climbing Chicago Center
02:05PM 41.6450 -89.2644 250° West 411 473 17,600 840 Climbing Chicago Center
02:06PM 41.6108 -89.4097 253° West 416 479 18,300 900 Climbing Chicago Center
02:07PM 41.5861 -89.5850 259° West 411 473 19,500 960 Climbing Chicago Center
02:08PM 41.5847 -89.7347 269° West 414 476 20,400 900 Climbing Chicago Center
02:10PM 41.5953 -89.8825 276° West 405 466 21,400 960 Climbing Chicago Center
02:11PM 41.6072 -90.0289 276° West 402 463 22,400 960 Climbing Chicago Center
02:12PM 41.6233 -90.1739 279° West 399 459 23,400 900 Climbing Chicago Center
02:13PM 41.6469 -90.3197 282° West 407 468 24,300 1,020 Climbing Chicago Center
02:14PM 41.6928 -90.4828 291° West 394 453 25,600 1,020 Climbing Chicago Center
02:15PM 41.7253 -90.6206 288° West 390 449 26,500 960 Climbing Chicago Center
02:16PM 41.7439 -90.7700 280° West 380 437 27,700 1,020 Climbing Chicago Center
02:17PM 41.7364 -90.9100 266° West 378 435 28,700 900 Climbing Chicago Center
02:18PM 41.7344 -91.0447 269° West 368 423 29,600 900 Climbing Chicago Center
02:19PM 41.7314 -91.1778 268° West 362 417 30,600 960 Climbing Chicago Center
02:20PM 41.7281 -91.3367 268° West 358 412 31,800 960 Climbing Chicago Center
02:21PM 41.7244 -91.4931 268° West 354 407 32,900 960 Climbing Chicago Center
02:22PM 41.7283 -91.6208 272° West 350 403 33,800 780 Climbing Chicago Center
02:23PM 41.7319 -91.7453 272° West 338 389 34,600 600 Climbing Chicago Center
02:24PM 41.7278 -91.8758 268° West 349 402 35,100 480 Climbing Chicago Center
02:25PM 41.7242 -92.0047 268° West 349 402 35,700 540 Climbing Chicago Center
02:26PM 41.7203 -92.1347 268° West 351 404 36,300 600 Climbing Chicago Center
02:27PM 41.7156 -92.2861 268° West 345 397 37,000 540 Climbing Chicago Center
02:28PM 41.7117 -92.4144 268° West 346 398 37,500 480 Climbing Chicago Center
02:29PM 41.7072 -92.5403 267° West 342 394 38,000 240 Climbing Chicago Center
02:30PM 41.7033 -92.6672 268° West 343 395 38,000  Level Chicago Center
02:31PM 41.7008 -92.7203 266° West 343 395 38,000  Level Minneapolis Center
02:32PM 41.6964 -92.8608 268° West 351 404 38,000  Level Minneapolis Center
02:33PM 41.6917 -92.9956 267° West 360 414 38,000  Level Minneapolis Center
02:34PM 41.6869 -93.1303 267° West 365 420 38,000  Level Minneapolis Center
02:35PM 41.6822 -93.2656 267° West 367 422 38,000  Level Minneapolis Center
02:36PM 41.6750 -93.4294 267° West 370 426 38,000  Level Minneapolis Center
02:37PM 41.6703 -93.5644 267° West 368 423 38,000  Level Minneapolis Center
02:38PM 41.6650 -93.7017 267° West 371 427 38,000  Level Minneapolis Center
02:39PM 41.6592 -93.8408 267° West 376 433 38,000  Level Minneapolis Center
02:40PM 41.6514 -94.0069 266° West 377 434 38,000  Level Minneapolis Center
02:41PM 41.6447 -94.1458 266° West 378 435 38,000  Level Minneapolis Center
02:42PM 41.6378 -94.2706 266° West 376 433 38,000  Level Minneapolis Center
02:43PM 41.6308 -94.4383 267° West 375 432 38,000  Level Minneapolis Center
02:44PM 41.6233 -94.5778 266° West 376 433 38,000  Level Minneapolis Center
02:45PM 41.6169 -94.7178 267° West 375 432 38,000  Level Minneapolis Center
02:46PM 41.6081 -94.8589 265° West 379 436 38,000  Level Minneapolis Center
02:47PM 41.6014 -94.9972 266° West 373 429 38,000  Level Minneapolis Center
02:48PM 41.5939 -95.1411 266° West 384 442 38,000  Level Minneapolis Center
02:49PM 41.5694 -95.3089 259° West 384 442 38,000  Level Minneapolis Center
02:50PM 41.5469 -95.4458 258° West 379 436 38,000  Level Minneapolis Center
02:51PM 41.5242 -95.5842 258° West 381 438 38,000  Level Minneapolis Center
02:53PM 41.5011 -95.7283 258° West 380 437 38,000  Level Minneapolis Center
02:54PM 41.4792 -95.8675 258° West 382 440 38,000  Level Minneapolis Center
02:55PM 41.4561 -96.0061 258° West 383 441 38,000  Level Minneapolis Center
02:56PM 41.4339 -96.1419 258° West 377 434 38,000  Level Minneapolis Center
02:57PM 41.4114 -96.3083 260° West 380 437 38,000  Level Minneapolis Center
02:58PM 41.4003 -96.4300 263° West 381 438 38,000  Level Minneapolis Center
02:59PM 41.3858 -96.5975 263° West 381 438 38,000  Level Minneapolis Center
03:00PM 41.3722 -96.7383 263° West 382 440 38,000  Level Minneapolis Center
03:01PM 41.3614 -96.8800 264° West 384 442 38,000  Level Minneapolis Center
03:02PM 41.3525 -97.0211 265° West 385 443 38,000  Level Minneapolis Center
03:03PM 41.3425 -97.1628 265° West 385 443 38,000  Level Minneapolis Center
03:04PM 41.3328 -97.3058 265° West 388 447 38,000  Level Minneapolis Center
03:05PM 41.3219 -97.4697 265° West 389 448 38,000  Level Minneapolis Center
03:06PM 41.3117 -97.6131 265° West 389 448 38,000  Level Minneapolis Center
03:07PM 41.3008 -97.7575 264° West 392 451 38,000  Level Minneapolis Center
03:08PM 41.2906 -97.9028 265° West 394 453 38,000  Level Minneapolis Center
03:09PM 41.2792 -98.0481 264° West 394 453 38,000  Level Minneapolis Center
03:10PM 41.2667 -98.2214 265° West 394 453 38,000  Level Minneapolis Center
03:11PM 41.2553 -98.3656 264° West 393 452 38,000  Level Minneapolis Center
03:12PM 41.2458 -98.4903 264° West 395 455 38,000  Level Minneapolis Center
03:13PM 41.2325 -98.6639 264° West 395 455 38,000  Level Minneapolis Center
03:14PM 41.2211 -98.8094 264° West 396 456 38,000  Level Minneapolis Center
03:15PM 41.2078 -98.9558 263° West 399 459 38,000  Level Minneapolis Center
03:16PM 41.2025 -99.0169 263° West 398 458 38,000  Level Denver Center
03:17PM 41.1900 -99.1675 264° West 394 453 38,000  Level Denver Center
03:18PM 41.1781 -99.3122 264° West 396 456 38,000  Level Denver Center
03:19PM 41.1647 -99.4550 263° West 395 455 38,000  Level Denver Center
03:20PM 41.1528 -99.5936 264° West 395 455 38,000  Level Denver Center
03:21PM 41.1378 -99.7564 263° West 397 457 38,000  Level Denver Center
03:22PM 41.1247 -99.8967 263° West 401 461 38,000  Level Denver Center
03:23PM 41.1103 -100.0594 263° West 401 461 38,000  Level Denver Center
03:24PM 41.0975 -100.2000 263° West 401 461 38,000  Level Denver Center
03:25PM 41.0817 -100.3631 263° West 401 461 38,000  Level Denver Center
03:26PM 41.0636 -100.5511 263° West 405 466 38,000  Level Denver Center
03:27PM 41.0506 -100.6908 263° West 404 465 38,000  Level Denver Center
03:28PM 41.0339 -100.8550 262° West 407 468 38,000  Level Denver Center
03:29PM 41.0189 -100.9944 262° West 405 466 38,000  Level Denver Center
03:30PM 41.0017 -101.1594 262° West 408 470 38,000  Level Denver Center
03:31PM 40.9872 -101.3011 262° West 409 471 38,000  Level Denver Center
03:32PM 40.9697 -101.4669 262° West 410 472 38,000  Level Denver Center
03:33PM 40.9536 -101.6111 262° West 413 475 38,000  Level Denver Center
03:34PM 40.9358 -101.7789 262° West 413 475 38,000  Level Denver Center
03:35PM 40.9206 -101.9233 262° West 415 478 38,000  Level Denver Center
03:36PM 40.9014 -102.0911 261° West 414 476 38,000  Level Denver Center
03:37PM 40.8861 -102.2353 262° West 416 479 38,000  Level Denver Center
03:39PM 40.8658 -102.4044 261° West 419 482 38,000  Level Denver Center
03:40PM 40.8489 -102.5483 261° West 416 479 38,000  Level Denver Center
03:41PM 40.8275 -102.7428 262° West 420 483 38,000  Level Denver Center
03:42PM 40.8094 -102.8875 261° West 418 481 38,000  Level Denver Center
03:43PM 40.7897 -103.0567 261° West 421 484 38,000  Level Denver Center
03:44PM 40.7714 -103.2108 261° West 423 487 38,000  Level Denver Center
03:45PM 40.7522 -103.3631 261° West 419 482 38,000  Level Denver Center
03:46PM 40.7336 -103.5181 261° West 425 489 38,000  Level Denver Center
03:47PM 40.7139 -103.6731 261° West 426 490 38,000  Level Denver Center
03:48PM 40.6942 -103.8292 261° West 431 496 38,000  Level Denver Center
03:49PM 40.6711 -104.0108 261° West 429 494 38,000  Level Denver Center
03:50PM 40.6508 -104.1697 261° West 437 503 38,000  Level Denver Center
03:51PM 40.6303 -104.3253 260° West 430 495 38,000  Level Denver Center
03:52PM 40.6097 -104.4825 260° West 433 498 38,000  Level Denver Center
03:53PM 40.5886 -104.6369 260° West 429 494 38,000  Level Denver Center
03:54PM 40.5675 -104.7942 260° West 432 497 38,000  Level Denver Center
03:55PM 40.5433 -104.9758 260° West 431 496 38,000  Level Denver Center
03:56PM 40.5217 -105.1303 260° West 429 494 38,000  Level Denver Center
03:57PM 40.4989 -105.2858 259° West 429 494 38,000  Level Denver Center
03:58PM 40.4778 -105.4425 260° West 433 498 38,000  Level Denver Center
03:59PM 40.4556 -105.5975 259° West 431 496 38,000  Level Denver Center
04:00PM 40.4325 -105.7544 259° West 434 499 38,000  Level Denver Center
04:01PM 40.4111 -105.9100 260° West 432 497 38,000  Level Denver Center
04:02PM 40.3831 -106.0925 259° West 434 499 38,000  Level Denver Center
04:04PM 40.3606 -106.2364 258° West 438 504 38,000  Level Denver Center
04:05PM 40.3358 -106.4122 260° West 439 505 38,000  Level Denver Center
04:06PM 40.3106 -106.5753 259° West 439 505 38,000  Level Denver Center
04:07PM 40.2864 -106.7325 259° West 440 506 38,000  Level Denver Center
04:08PM 40.2622 -106.8892 259° West 442 509 38,000  Level Denver Center
04:09PM 40.2350 -107.0647 259° West 443 510 38,000  Level Denver Center
04:10PM 40.2114 -107.2167 259° West 444 511 38,000  Level Denver Center
04:11PM 40.1828 -107.3936 258° West 447 514 38,000  Level Denver Center
04:12PM 40.1592 -107.5467 259° West 449 517 38,000  Level Denver Center
04:13PM 40.1300 -107.7236 258° West 447 514 38,000  Level Denver Center
04:14PM 40.1061 -107.8772 259° West 450 518 38,000  Level Denver Center
04:15PM 40.0844 -108.0047 258° West 451 519 38,000  Level Denver Center
04:16PM 40.0506 -108.2075 258° West 450 518 38,000  Level Denver Center
04:17PM 40.0200 -108.3864 257° West 454 522 38,000  Level Denver Center
04:18PM 39.9947 -108.5386 258° West 453 521 38,000  Level Denver Center
04:19PM 39.9636 -108.7175 257° West 455 524 38,000  Level Denver Center
04:20PM 39.9372 -108.8700 257° West 456 525 38,000  Level Denver Center
04:20PM 39.9281 -108.9211 257° West 456 525 38,000  Level Salt Lake Center
04:21PM 39.9014 -109.0742 257° West 457 526 38,000  Level Salt Lake Center
04:22PM 39.8786 -109.2008 257° West 456 525 38,000  Level Denver Center
04:22PM 39.8694 -109.2519 257° West 455 524 38,000  Level Salt Lake Center
04:23PM 39.8467 -109.3794 257° West 456 525 38,000  Level Denver Center
04:24PM 39.8192 -109.5311 257° West 452 520 38,000  Level Denver Center
04:25PM 39.7875 -109.7083 257° West 453 521 38,000  Level Denver Center
04:25PM 39.7822 -109.7331 254° West 451 519 38,000  Level Salt Lake Center
04:27PM 39.7506 -109.9111 257° West 453 521 38,000  Level Salt Lake Center
04:28PM 39.7228 -110.0628 257° West 452 520 38,000  Level Salt Lake Center
04:29PM 39.6939 -110.2131 256° West 451 519 38,000  Level Salt Lake Center
04:30PM 39.6622 -110.3903 257° West 451 519 38,000  Level Salt Lake Center
04:31PM 39.6344 -110.5414 257° West 451 519 38,000  Level Salt Lake Center
04:32PM 39.6006 -110.7181 256° West 451 519 38,000  Level Salt Lake Center
04:33PM 39.5703 -110.8703 256° West 454 522 38,000  Level Salt Lake Center
04:34PM 39.5367 -111.0461 256° West 453 521 38,000  Level Salt Lake Center
04:35PM 39.5069 -111.1986 256° West 456 525 38,000  Level Salt Lake Center
04:36PM 39.4764 -111.3564 256° West 454 522 38,000  Level Salt Lake Center
04:37PM 39.4439 -111.5164 255° West 459 528 38,000  Level Salt Lake Center
04:38PM 39.4125 -111.6764 256° West 458 527 38,000  Level Salt Lake Center
04:39PM 39.3806 -111.8361 256° West 459 528 38,000  Level Salt Lake Center
04:40PM 39.3475 -111.9961 255° West 461 531 38,000  Level Salt Lake Center
04:41PM 39.3078 -112.1886 255° West 462 532 38,000  Level Salt Lake Center
04:42PM 39.2747 -112.3486 255° West 462 532 38,000  Level Salt Lake Center
04:43PM 39.2408 -112.5100 255° West 464 534 38,000  Level Salt Lake Center
04:44PM 39.2103 -112.6575 255° West 467 537 38,000  Level Salt Lake Center
04:45PM 39.1686 -112.8486 254° West 465 535 38,000  Level Salt Lake Center
04:46PM 39.1344 -113.0108 255° West 470 541 38,000  Level Salt Lake Center
04:47PM 39.1003 -113.1681 254° West 464 534 38,000  Level Salt Lake Center
04:48PM 39.0650 -113.3303 254° West 467 537 38,000  Level Salt Lake Center
04:49PM 39.0306 -113.4933 255° West 474 545 38,000  Level Salt Lake Center
04:50PM 38.9950 -113.6525 254° West 469 540 38,000  Level Salt Lake Center
04:51PM 38.9528 -113.8461 254° West 471 542 38,000  Level Salt Lake Center
04:52PM 38.9169 -114.0075 254° West 472 543 38,000  Level Salt Lake Center
04:53PM 38.8806 -114.1675 254° West 470 541 38,000  Level Salt Lake Center
04:54PM 38.8442 -114.3272 254° West 470 541 38,000  Level Salt Lake Center
04:55PM 38.8086 -114.4878 254° West 470 541 38,000  Level Salt Lake Center
04:56PM 38.7714 -114.6472 253° West 469 540 38,000  Level Salt Lake Center
04:57PM 38.7347 -114.8083 254° West 472 543 38,000  Level Salt Lake Center
04:58PM 38.6886 -115.0003 253° West 471 542 38,000  Level Salt Lake Center
04:59PM 38.6494 -115.1603 253° West 475 547 38,000  Level Salt Lake Center
05:00PM 38.6131 -115.3172 254° West 467 537 38,000  Level Salt Lake Center
05:01PM 38.5767 -115.4672 253° West 465 535 38,000  Level Salt Lake Center
05:02PM 38.5389 -115.6253 253° West 465 535 38,000  Level Salt Lake Center
05:04PM 38.4939 -115.8164 253° West 467 537 38,000  Level Salt Lake Center
05:05PM 38.4544 -115.9731 252° West 466 536 38,000  Level Salt Lake Center
05:06PM 38.4175 -116.1308 253° West 465 535 38,000  Level Salt Lake Center
05:06PM 38.4008 -116.1942 251° West 469 540 38,000  Level Oakland Center
05:07PM 38.3625 -116.3522 253° West 468 539 38,000  Level Oakland Center
05:08PM 38.3400 -116.4467 253° West 466 536 38,000  Level Salt Lake Center
05:08PM 38.3233 -116.5094 251° West 466 536 38,000  Level Oakland Center
05:09PM 38.2839 -116.6658 252° West 466 536 38,000  Level Oakland Center
05:10PM 38.2450 -116.8228 253° West 465 535 38,000  Level Oakland Center
05:11PM 38.2156 -116.9153 248° West 466 536 38,000  Level Salt Lake Center
05:12PM 38.1486 -117.0933 244° Southwest 464 534 38,000  Level Salt Lake Center
05:12PM 38.1331 -117.1361 245° Southwest 464 534 38,000  Level Oakland Center
05:13PM 38.0764 -117.2881 245° Southwest 472 543 38,000  Level Oakland Center
05:14PM 38.0225 -117.4364 245° Southwest 463 533 38,000  Level Oakland Center
05:15PM 37.9567 -117.6128 245° Southwest 461 531 38,000  Level Oakland Center
05:16PM 37.9006 -117.7608 244° Southwest 465 535 38,000  Level Oakland Center
05:17PM 37.8447 -117.9089 245° Southwest 465 535 38,000  Level Oakland Center
05:18PM 37.7889 -118.0569 245° Southwest 466 536 38,000  Level Oakland Center
05:19PM 37.7347 -118.2042 245° Southwest 465 535 38,000 -120 Level Oakland Center
05:20PM 37.6797 -118.3514 245° Southwest 463 533 37,800 -660 Descending Oakland Center
05:21PM 37.6222 -118.4978 244° Southwest 465 535 36,700 -1,440 Descending Oakland Center
05:22PM 37.5669 -118.6447 245° Southwest 466 536 34,900 -1,740 Descending Oakland Center
05:23PM 37.5069 -118.7958 243° Southwest 481 554 33,200 -1,860 Descending Oakland Center
05:24PM 37.4361 -118.9761 244° Southwest 488 562 31,100 -1,860 Descending Oakland Center
05:25PM 37.3756 -119.1342 244° Southwest 500 575 29,400 -1,620 Descending Oakland Center
05:26PM 37.3158 -119.2978 245° Southwest 511 588 27,800 -1,620 Descending Oakland Center
05:28PM 37.2522 -119.4542 243° Southwest 507 583 26,100 -1,620 Descending Oakland Center
05:29PM 37.1881 -119.6128 243° Southwest 514 592 24,500 -1,440 Descending Oakland Center
05:30PM 37.1244 -119.7717 243° Southwest 511 588 23,200 -1,080 Descending Oakland Center
05:31PM 37.0622 -119.9292 244° Southwest 509 586 22,300 -960 Descending Oakland Center
05:32PM 36.9867 -120.1100 242° Southwest 489 563 21,300 -840 Descending Oakland Center
05:33PM 36.9333 -120.2431 243° Southwest 481 554 20,600 -840 Descending Oakland Center
05:34PM 36.8728 -120.3883 243° Southwest 471 542 19,700 -1,020 Descending Oakland Center
05:35PM 36.8111 -120.5492 244° Southwest 471 542 18,600 -1,020 Descending Oakland Center
05:36PM 36.7594 -120.6939 246° West 462 532 17,700 -1,080 Descending Oakland Center
05:37PM 36.7117 -120.8342 247° West 437 503 16,400 -1,440 Descending Oakland Center
05:38PM 36.6647 -120.9692 247° West 427 491 14,800 -1,560 Descending Oakland Center
05:39PM 36.6186 -121.1008 246° West 423 487 13,300 -1,800 Descending Oakland Center
05:40PM 36.5769 -121.2206 247° West 327 376 11,200 -1,920 Descending Oakland Center
05:41PM 36.5442 -121.3133 246° West 301 346 9,400 -1,620 Descending Oakland Center
05:42PM 36.5122 -121.4081 247° West 300 345 8,000 -960 Descending Oakland Center
05:43PM 36.4819 -121.4956 247° West 286 329 7,500 -780 Descending Oakland Center
05:44PM 36.4942 -121.5711 281° West 240 276 6,500 -1,260 Descending Oakland Center
05:45PM 36.5183 -121.6481 291° West 238 274 5,000 -1,560 Descending Oakland Center
05:45PM 36.5333 -121.6667 315° West 216 249 4,500 -1,200 Descending Northern Cal TRACON
05:46PM 36.5500 -121.7333 287° West 182 209 3,600 -1,260 Descending Northern Cal TRACON
05:47PM 36.5667 -121.7833 293° West 146 168 2,000 -1,500 Descending Northern Cal TRACON